createdAt,value
2023-07-22T00:00:50.177Z,2.90
2023-07-22T00:03:34.597Z,2.90
2023-07-22T00:06:11.192Z,3.10
2023-07-22T00:08:39.937Z,2.80
2023-07-22T00:11:08.602Z,3.00
2023-07-22T00:13:36.815Z,3.10
2023-07-22T00:16:09.194Z,3.40
2023-07-22T00:18:37.667Z,3.40
2023-07-22T00:21:05.769Z,3.70
2023-07-22T00:23:33.624Z,3.60
2023-07-22T00:26:01.612Z,3.70
2023-07-22T00:28:29.625Z,4.50
2023-07-22T00:30:58.752Z,4.00
2023-07-22T00:33:27.630Z,4.10
2023-07-22T00:35:56.597Z,4.70
2023-07-22T00:38:24.689Z,4.20
2023-07-22T00:40:52.694Z,4.20
2023-07-22T00:43:20.761Z,3.80
2023-07-22T00:45:48.851Z,4.20
2023-07-22T00:48:17.580Z,3.90
2023-07-22T00:50:45.529Z,4.50
2023-07-22T00:53:13.638Z,4.40
2023-07-22T00:55:42.740Z,5.40
2023-07-22T00:58:10.938Z,7.60
2023-07-22T01:00:39.050Z,11.70
2023-07-22T01:03:09.009Z,18.20
2023-07-22T01:05:38.318Z,20.60
2023-07-22T01:08:07.561Z,17.30
2023-07-22T01:10:35.868Z,15.80
2023-07-22T01:13:03.909Z,15.20
2023-07-22T01:15:32.639Z,13.60
2023-07-22T01:18:03.074Z,18.60
2023-07-22T01:20:31.767Z,21.90
2023-07-22T01:23:00.380Z,21.50
2023-07-22T01:25:30.727Z,18.90
2023-07-22T01:27:59.181Z,17.90
2023-07-22T01:30:28.868Z,17.70
2023-07-22T01:32:57.112Z,16.80
2023-07-22T01:35:25.258Z,15.00
2023-07-22T01:37:53.213Z,12.70
2023-07-22T01:40:22.000Z,9.30
2023-07-22T01:42:50.310Z,7.00
2023-07-22T01:45:18.491Z,7.20
2023-07-22T01:47:46.574Z,6.20
2023-07-22T01:50:14.696Z,5.70
2023-07-22T01:52:42.641Z,5.80
2023-07-22T01:55:12.444Z,5.60
2023-07-22T01:57:41.383Z,5.20
2023-07-22T02:00:12.328Z,5.60
2023-07-22T02:02:44.334Z,5.70
2023-07-22T02:05:13.690Z,5.50
2023-07-22T02:07:41.867Z,5.50
2023-07-22T02:10:10.941Z,6.10
2023-07-22T02:12:39.342Z,5.60
2023-07-22T02:15:08.100Z,5.10
2023-07-22T02:17:36.377Z,5.00
2023-07-22T02:20:06.062Z,4.50
2023-07-22T02:22:34.081Z,4.20
2023-07-22T02:25:02.092Z,4.90
2023-07-22T02:27:30.079Z,5.10
2023-07-22T02:29:58.065Z,4.20
2023-07-22T02:32:26.366Z,4.40
2023-07-22T02:34:54.550Z,5.40
2023-07-22T02:37:22.412Z,3.90
2023-07-22T02:39:50.424Z,4.40
2023-07-22T02:42:18.345Z,4.10
2023-07-22T02:44:46.357Z,4.60
2023-07-22T02:47:15.370Z,3.70
2023-07-22T02:49:44.159Z,3.80
2023-07-22T02:52:12.110Z,4.00
2023-07-22T02:54:43.327Z,4.00
2023-07-22T02:57:12.017Z,3.40
2023-07-22T02:59:40.087Z,3.80
2023-07-22T03:02:08.022Z,3.00
2023-07-22T03:04:35.958Z,3.80
2023-07-22T03:07:04.327Z,3.50
2023-07-22T03:09:32.460Z,4.10
2023-07-22T03:12:00.435Z,3.60
2023-07-22T03:14:28.586Z,3.50
2023-07-22T03:16:56.688Z,3.30
2023-07-22T03:19:24.816Z,3.00
2023-07-22T03:21:52.989Z,3.80
2023-07-22T03:24:24.295Z,3.40
2023-07-22T03:26:53.186Z,3.60
2023-07-22T03:29:21.252Z,3.10
2023-07-22T03:31:49.380Z,3.20
2023-07-22T03:34:17.313Z,3.80
2023-07-22T03:36:45.300Z,3.80
2023-07-22T03:39:13.281Z,4.20
2023-07-22T03:41:41.261Z,4.50
2023-07-22T03:44:09.391Z,4.50
2023-07-22T03:46:37.347Z,5.00
2023-07-22T03:49:05.838Z,4.50
2023-07-22T03:51:34.400Z,4.20
2023-07-22T03:54:02.366Z,5.10
2023-07-22T03:56:30.476Z,4.50
2023-07-22T03:58:58.644Z,4.80
2023-07-22T04:01:26.638Z,4.60
2023-07-22T04:03:54.612Z,4.60
2023-07-22T04:06:22.473Z,4.40
2023-07-22T04:08:50.604Z,4.60
2023-07-22T04:11:18.708Z,4.00
2023-07-22T04:13:46.815Z,4.40
2023-07-22T04:16:14.778Z,4.30
2023-07-22T04:18:42.807Z,4.10
2023-07-22T04:21:10.985Z,4.30
2023-07-22T04:23:39.116Z,4.30
2023-07-22T04:26:08.887Z,4.90
2023-07-22T04:28:37.058Z,4.30
2023-07-22T04:31:07.105Z,4.60
2023-07-22T04:33:37.034Z,4.70
2023-07-22T04:36:06.076Z,4.60
2023-07-22T04:38:34.145Z,4.80
2023-07-22T04:41:04.873Z,4.60
2023-07-22T04:43:33.892Z,4.70
2023-07-22T04:46:02.111Z,4.40
2023-07-22T04:48:30.969Z,4.80
2023-07-22T04:50:58.955Z,4.90
2023-07-22T04:53:27.122Z,4.40
2023-07-22T04:55:56.379Z,4.40
2023-07-22T04:58:25.396Z,4.90
2023-07-22T05:00:53.301Z,5.20
2023-07-22T05:03:21.478Z,5.50
2023-07-22T05:05:50.225Z,4.40
2023-07-22T05:08:18.301Z,4.80
2023-07-22T05:10:46.751Z,5.20
2023-07-22T05:13:14.801Z,4.80
2023-07-22T05:15:42.790Z,7.10
2023-07-22T05:18:10.969Z,6.00
2023-07-22T05:20:40.337Z,5.90
2023-07-22T05:23:08.736Z,4.90
2023-07-22T05:25:36.835Z,6.00
2023-07-22T05:28:04.989Z,5.00
2023-07-22T05:30:35.800Z,5.30
2023-07-22T05:33:04.630Z,4.90
2023-07-22T05:35:32.794Z,5.00
2023-07-22T05:38:01.853Z,4.90
2023-07-22T05:40:29.966Z,5.00
2023-07-22T05:42:58.064Z,4.50
2023-07-22T05:45:26.087Z,4.20
2023-07-22T05:47:54.109Z,4.20
2023-07-22T05:50:22.241Z,4.20
2023-07-22T05:52:50.417Z,3.40
2023-07-22T05:55:18.481Z,4.00
2023-07-22T05:57:46.399Z,3.60
2023-07-22T06:00:14.867Z,3.70
2023-07-22T06:02:43.229Z,3.60
2023-07-22T06:05:11.332Z,3.50
2023-07-22T06:07:39.459Z,3.50
2023-07-22T06:10:09.426Z,2.70
2023-07-22T06:12:37.452Z,2.70
2023-07-22T06:15:05.957Z,2.80
2023-07-22T06:17:34.073Z,2.10
2023-07-22T06:20:02.782Z,2.00
2023-07-22T06:22:30.964Z,2.40
2023-07-22T06:24:59.096Z,1.40
2023-07-22T06:27:27.150Z,1.40
2023-07-22T06:29:56.349Z,1.90
2023-07-22T06:32:24.382Z,1.50
2023-07-22T06:34:52.495Z,1.00
2023-07-22T06:37:20.561Z,1.50
2023-07-22T06:39:48.523Z,1.10
2023-07-22T06:42:16.376Z,1.20
2023-07-22T06:44:44.939Z,1.30
2023-07-22T06:47:13.065Z,1.50
2023-07-22T06:49:43.560Z,1.30
2023-07-22T06:52:14.290Z,0.90
2023-07-22T06:54:42.211Z,1.40
2023-07-22T06:57:10.451Z,1.00
2023-07-22T06:59:38.579Z,0.70
2023-07-22T07:02:06.732Z,1.40
2023-07-22T07:04:34.807Z,0.70
2023-07-22T07:07:03.857Z,1.10
2023-07-22T07:09:31.935Z,0.70
2023-07-22T07:11:59.977Z,0.90
2023-07-22T07:14:28.063Z,0.90
2023-07-22T07:16:55.996Z,1.30
2023-07-22T07:19:23.998Z,0.80
2023-07-22T07:21:52.365Z,1.00
2023-07-22T07:24:20.932Z,0.50
2023-07-22T07:26:48.980Z,0.70
2023-07-22T07:29:28.567Z,0.70
2023-07-22T07:32:05.683Z,1.40
2023-07-22T07:34:33.571Z,0.60
2023-07-22T07:37:01.662Z,0.60
2023-07-22T07:39:30.266Z,0.60
2023-07-22T07:41:58.216Z,0.90
2023-07-22T07:44:26.242Z,0.60
2023-07-22T07:46:54.203Z,0.90
2023-07-22T07:49:22.127Z,0.50
2023-07-22T07:51:50.009Z,0.80
2023-07-22T07:54:18.001Z,0.60
2023-07-22T07:56:46.028Z,0.60
2023-07-22T07:59:13.951Z,0.50
2023-07-22T08:01:43.340Z,0.90
2023-07-22T08:04:11.466Z,0.70
2023-07-22T08:06:39.634Z,0.80
2023-07-22T08:09:07.744Z,0.80
2023-07-22T08:11:35.620Z,0.60
2023-07-22T08:14:03.638Z,0.70
2023-07-22T08:16:31.897Z,1.00
2023-07-22T08:19:00.193Z,1.00
2023-07-22T08:21:28.244Z,0.80
2023-07-22T08:23:56.300Z,0.90
2023-07-22T08:26:24.563Z,1.00
2023-07-22T08:28:52.797Z,1.10
2023-07-22T08:31:20.903Z,0.90
2023-07-22T08:33:49.113Z,0.90
2023-07-22T08:36:17.080Z,0.90
2023-07-22T08:38:45.074Z,0.90
2023-07-22T08:41:17.424Z,0.80
2023-07-22T08:43:47.922Z,1.40
2023-07-22T08:46:16.929Z,1.00
2023-07-22T08:48:48.004Z,1.10
2023-07-22T08:51:15.875Z,1.50
2023-07-22T08:53:47.995Z,0.80
2023-07-22T08:56:21.649Z,1.30
2023-07-22T08:58:52.052Z,1.00
2023-07-22T09:01:20.266Z,1.30
2023-07-22T09:03:51.746Z,1.30
2023-07-22T09:06:20.815Z,1.10
2023-07-22T09:08:49.220Z,1.10
2023-07-22T09:11:17.280Z,1.10
2023-07-22T09:13:55.876Z,0.80
2023-07-22T09:16:32.202Z,0.80
2023-07-22T09:19:01.016Z,0.90
2023-07-22T09:21:31.764Z,0.90
2023-07-22T09:23:59.635Z,1.30
2023-07-22T09:26:27.745Z,0.80
2023-07-22T09:28:59.509Z,0.50
2023-07-22T09:31:29.594Z,0.60
2023-07-22T09:34:10.858Z,0.70
2023-07-22T09:36:54.858Z,0.50
2023-07-22T09:39:23.715Z,0.70
2023-07-22T09:41:54.007Z,0.60
2023-07-22T09:44:23.306Z,0.50
2023-07-22T09:46:51.757Z,0.60
2023-07-22T09:49:20.033Z,0.90
2023-07-22T09:51:57.014Z,0.60
2023-07-22T09:54:37.707Z,0.50
2023-07-22T09:57:07.415Z,0.60
2023-07-22T09:59:35.601Z,0.50
2023-07-22T10:02:04.336Z,0.50
2023-07-22T10:04:35.208Z,0.40
2023-07-22T10:07:04.995Z,0.70
2023-07-22T10:09:35.176Z,0.70
2023-07-22T10:12:04.783Z,0.50
2023-07-22T10:14:36.232Z,0.80
2023-07-22T10:17:07.697Z,0.50
2023-07-22T10:19:36.173Z,0.60
2023-07-22T10:22:05.535Z,0.90
2023-07-22T10:24:33.943Z,0.60
2023-07-22T10:27:02.174Z,0.80
2023-07-22T10:29:30.837Z,0.40
2023-07-22T10:31:58.927Z,0.50
2023-07-22T10:34:26.932Z,0.50
2023-07-22T10:36:58.428Z,0.50
2023-07-22T10:39:28.139Z,0.80
2023-07-22T10:42:08.088Z,0.70
2023-07-22T10:44:40.330Z,0.50
2023-07-22T10:47:09.148Z,0.50
2023-07-22T10:49:45.946Z,0.50
2023-07-22T10:52:15.467Z,0.60
2023-07-22T10:54:43.862Z,0.40
2023-07-22T10:57:18.083Z,0.50
2023-07-22T10:59:51.452Z,0.70
2023-07-22T11:02:30.879Z,0.40
2023-07-22T11:05:03.213Z,0.60
2023-07-22T11:07:43.660Z,0.50
2023-07-22T11:10:14.614Z,0.60
2023-07-22T11:12:45.156Z,1.00
2023-07-22T11:15:17.068Z,0.90
2023-07-22T11:17:45.123Z,0.70
2023-07-22T11:20:13.315Z,0.90
2023-07-22T11:22:42.148Z,0.80
2023-07-22T11:25:10.870Z,0.70
2023-07-22T11:27:39.185Z,0.90
2023-07-22T11:30:08.501Z,1.10
2023-07-22T11:32:36.524Z,0.90
2023-07-22T11:35:04.931Z,0.70
2023-07-22T11:37:34.926Z,0.90
2023-07-22T11:40:03.368Z,0.70
2023-07-22T11:42:31.864Z,0.90
2023-07-22T11:44:59.954Z,0.90
2023-07-22T11:47:34.173Z,0.70
2023-07-22T11:50:02.565Z,0.50
2023-07-22T11:52:30.601Z,0.70
2023-07-22T11:55:04.502Z,0.60
2023-07-22T11:57:32.653Z,0.60
2023-07-22T12:00:00.705Z,0.40
2023-07-22T12:02:38.553Z,0.90
2023-07-22T12:05:07.179Z,0.60
2023-07-22T12:07:37.361Z,0.50
2023-07-22T12:10:11.437Z,0.60
2023-07-22T12:12:47.630Z,0.60
2023-07-22T12:15:24.959Z,0.50
2023-07-22T12:17:54.617Z,0.80
2023-07-22T12:20:27.728Z,0.50
2023-07-22T12:22:57.754Z,0.70
2023-07-22T12:25:26.105Z,0.80
2023-07-22T12:30:57.444Z,0.70
2023-07-22T12:33:33.658Z,0.80
2023-07-22T12:36:08.885Z,0.60
2023-07-22T12:38:37.401Z,0.60
2023-07-22T12:41:05.288Z,0.60
2023-07-22T12:43:33.330Z,0.80
2023-07-22T12:46:01.397Z,1.20
2023-07-22T12:48:29.654Z,0.70
2023-07-22T12:50:57.736Z,0.60
2023-07-22T12:53:26.723Z,1.00
2023-07-22T12:55:54.767Z,0.80
2023-07-22T12:58:22.872Z,1.00
2023-07-22T13:00:52.941Z,0.70
2023-07-22T13:03:21.146Z,0.80
2023-07-22T13:05:49.781Z,0.80
2023-07-22T13:08:18.094Z,0.90
2023-07-22T13:10:48.370Z,1.10
2023-07-22T13:13:16.438Z,0.70
2023-07-22T13:15:47.797Z,0.90
2023-07-22T13:18:18.024Z,0.70
2023-07-22T13:20:46.114Z,1.00
2023-07-22T13:23:14.075Z,0.90
2023-07-22T13:25:42.085Z,0.90
2023-07-22T13:28:10.228Z,1.10
2023-07-22T13:30:38.282Z,0.80
2023-07-22T13:33:06.245Z,1.00
2023-07-22T13:35:34.581Z,0.80
2023-07-22T13:38:02.674Z,0.90
2023-07-22T13:40:30.584Z,1.10
2023-07-22T13:42:58.686Z,0.80
2023-07-22T13:45:27.764Z,1.00
2023-07-22T13:47:55.795Z,1.20
2023-07-22T13:50:23.863Z,1.10
2023-07-22T13:52:52.252Z,1.10
2023-07-22T13:55:20.740Z,1.20
2023-07-22T13:57:48.834Z,1.40
2023-07-22T14:00:17.198Z,1.20
2023-07-22T14:02:45.259Z,1.30
2023-07-22T14:05:13.359Z,1.00
2023-07-22T14:07:41.365Z,1.00
2023-07-22T14:10:10.417Z,0.90
2023-07-22T14:12:38.385Z,1.00
2023-07-22T14:15:07.532Z,1.20
2023-07-22T14:17:35.429Z,0.60
2023-07-22T14:20:06.010Z,0.80
2023-07-22T14:22:34.459Z,1.00
2023-07-22T14:25:02.473Z,1.10
2023-07-22T14:27:30.524Z,1.10
2023-07-22T14:29:58.423Z,0.90
2023-07-22T14:32:26.366Z,1.00
2023-07-22T14:34:54.213Z,1.10
2023-07-22T14:37:22.790Z,1.00
2023-07-22T14:39:50.953Z,1.10
2023-07-22T14:42:18.975Z,1.20
2023-07-22T14:44:47.552Z,0.90
2023-07-22T14:47:15.455Z,1.30
2023-07-22T14:49:43.470Z,1.20
2023-07-22T14:52:11.420Z,1.00
2023-07-22T14:54:39.671Z,0.90
2023-07-22T14:57:07.873Z,0.80
2023-07-22T14:59:36.008Z,1.10
2023-07-22T15:02:04.195Z,1.20
2023-07-22T15:04:32.880Z,1.10
2023-07-22T15:07:00.917Z,0.80
2023-07-22T15:09:29.041Z,1.00
2023-07-22T15:11:57.030Z,1.40
2023-07-22T15:14:24.915Z,1.10
2023-07-22T15:16:52.852Z,1.10
2023-07-22T15:19:20.775Z,0.70
2023-07-22T15:21:48.637Z,1.10
2023-07-22T15:24:16.628Z,1.00
2023-07-22T15:26:44.548Z,1.40
2023-07-22T15:29:12.599Z,1.00
2023-07-22T15:31:40.714Z,1.30
2023-07-22T15:34:09.003Z,1.00
2023-07-22T15:36:37.006Z,1.10
2023-07-22T15:39:04.858Z,1.20
2023-07-22T15:41:32.907Z,0.80
2023-07-22T15:44:00.979Z,0.90
2023-07-22T15:46:28.968Z,1.10
2023-07-22T15:48:57.047Z,1.40
2023-07-22T15:51:25.283Z,1.00
2023-07-22T15:53:53.517Z,1.00
2023-07-22T15:56:21.599Z,1.20
2023-07-22T15:58:49.602Z,1.00
2023-07-22T16:01:17.793Z,0.80
2023-07-22T16:03:46.148Z,0.90
2023-07-22T16:06:27.020Z,1.20
2023-07-22T16:09:00.372Z,0.80
2023-07-22T16:11:28.765Z,1.00
2023-07-22T16:13:57.040Z,0.90
2023-07-22T16:16:24.884Z,0.90
2023-07-22T16:18:54.751Z,0.90
2023-07-22T16:21:22.828Z,0.70
2023-07-22T16:23:50.842Z,1.00
2023-07-22T16:26:18.873Z,1.00
2023-07-22T16:28:47.023Z,1.00
2023-07-22T16:31:16.314Z,0.80
2023-07-22T16:33:50.262Z,0.90
2023-07-22T16:36:18.867Z,0.70
2023-07-22T16:38:46.781Z,0.90
2023-07-22T16:41:14.780Z,0.80
2023-07-22T16:43:42.866Z,0.70
2023-07-22T16:46:10.947Z,0.90
2023-07-22T16:48:39.577Z,1.00
2023-07-22T16:51:07.739Z,0.80
2023-07-22T16:53:35.843Z,1.10
2023-07-22T16:56:03.923Z,0.80
2023-07-22T16:58:31.954Z,1.10
2023-07-22T17:01:00.697Z,1.00
2023-07-22T17:03:31.816Z,0.90
2023-07-22T17:05:59.899Z,0.80
2023-07-22T17:08:28.251Z,0.80
2023-07-22T17:10:56.444Z,0.70
2023-07-22T17:13:24.461Z,0.60
2023-07-22T17:15:52.365Z,0.90
2023-07-22T17:18:20.247Z,0.50
2023-07-22T17:20:48.398Z,0.70
2023-07-22T17:23:17.459Z,0.70
2023-07-22T17:25:45.449Z,0.70
2023-07-22T17:28:13.380Z,0.80
2023-07-22T17:30:41.233Z,0.80
2023-07-22T17:33:09.368Z,0.70
2023-07-22T17:35:37.841Z,1.00
2023-07-22T17:38:06.315Z,1.00
2023-07-22T17:40:34.258Z,1.00
2023-07-22T17:43:02.334Z,0.80
2023-07-22T17:45:30.398Z,1.10
2023-07-22T17:47:58.450Z,0.70
2023-07-22T17:50:26.501Z,0.80
2023-07-22T17:52:54.505Z,1.00
2023-07-22T17:55:22.529Z,0.90
2023-07-22T17:57:50.657Z,1.10
2023-07-22T18:00:18.709Z,1.00
2023-07-22T18:02:46.636Z,0.70
2023-07-22T18:05:14.763Z,0.90
2023-07-22T18:07:42.822Z,1.00
2023-07-22T18:10:11.172Z,0.70
2023-07-22T18:12:39.371Z,0.80
2023-07-22T18:15:07.845Z,1.00
2023-07-22T18:17:36.077Z,0.90
2023-07-22T18:20:07.174Z,0.60
2023-07-22T18:22:36.363Z,0.70
2023-07-22T18:25:05.253Z,1.00
2023-07-22T18:27:33.176Z,0.80
2023-07-22T18:30:01.158Z,0.80
2023-07-22T18:32:30.297Z,0.70
2023-07-22T18:34:58.679Z,1.10
2023-07-22T18:37:28.055Z,1.10
2023-07-22T18:39:56.439Z,1.10
2023-07-22T18:42:24.477Z,1.10
2023-07-22T18:44:52.402Z,0.80
2023-07-22T18:47:20.481Z,0.80
2023-07-22T18:49:48.841Z,0.70
2023-07-22T18:52:16.869Z,0.60
2023-07-22T18:54:45.238Z,0.70
2023-07-22T18:57:13.510Z,0.90
2023-07-22T18:59:41.500Z,0.80
2023-07-22T19:02:09.791Z,0.80
2023-07-22T19:04:40.370Z,0.70
2023-07-22T19:07:09.761Z,0.70
2023-07-22T19:09:38.340Z,0.70
2023-07-22T19:12:06.682Z,0.80
2023-07-22T19:14:34.773Z,0.70
2023-07-22T19:17:02.865Z,0.80
2023-07-22T19:19:30.908Z,0.80
2023-07-22T19:22:01.439Z,0.70
2023-07-22T19:24:29.531Z,0.90
2023-07-22T19:26:57.574Z,0.70
2023-07-22T19:29:25.553Z,0.70
2023-07-22T19:31:53.764Z,1.40
2023-07-22T19:34:21.685Z,0.70
2023-07-22T19:36:49.732Z,0.70
2023-07-22T19:39:20.995Z,1.00
2023-07-22T19:41:49.047Z,1.10
2023-07-22T19:44:17.046Z,1.00
2023-07-22T19:46:44.998Z,1.70
2023-07-22T19:49:13.040Z,1.20
2023-07-22T19:51:41.620Z,1.00
2023-07-22T19:54:15.662Z,1.70
2023-07-22T19:56:51.584Z,1.20
2023-07-22T19:59:26.110Z,0.90
2023-07-22T20:02:00.091Z,1.10
2023-07-22T20:04:50.211Z,1.30
2023-07-22T20:07:36.821Z,1.00
2023-07-22T20:10:14.302Z,1.40
2023-07-22T20:12:46.367Z,1.20
2023-07-22T20:15:14.528Z,2.00
2023-07-22T20:17:42.708Z,1.30
2023-07-22T20:20:10.911Z,1.10
2023-07-22T20:22:39.078Z,1.30
2023-07-22T20:25:07.328Z,1.60
2023-07-22T20:27:35.499Z,1.70
2023-07-22T20:30:07.202Z,1.70
2023-07-22T20:32:36.943Z,1.50
2023-07-22T20:35:10.547Z,1.70
2023-07-22T20:37:39.380Z,1.60
2023-07-22T20:40:08.150Z,1.70
2023-07-22T20:42:36.151Z,2.10
2023-07-22T20:45:04.492Z,2.50
2023-07-22T20:47:32.468Z,2.10
2023-07-22T20:50:00.650Z,2.40
2023-07-22T20:52:28.831Z,2.00
2023-07-22T20:54:56.946Z,2.50
2023-07-22T20:57:24.847Z,1.90
2023-07-22T20:59:56.854Z,2.40
2023-07-22T21:02:25.063Z,2.50
2023-07-22T21:04:54.404Z,3.10
2023-07-22T21:07:22.519Z,2.50
2023-07-22T21:09:50.600Z,2.70
2023-07-22T21:12:18.580Z,2.60
2023-07-22T21:14:46.555Z,2.10
2023-07-22T21:17:14.576Z,2.20
2023-07-22T21:19:42.671Z,1.50
2023-07-22T21:22:11.178Z,1.90
2023-07-22T21:24:39.396Z,1.90
2023-07-22T21:27:07.405Z,2.00
2023-07-22T21:29:35.590Z,1.90
2023-07-22T21:32:03.762Z,2.10
2023-07-22T21:34:31.809Z,2.10
2023-07-22T21:36:59.787Z,2.20
2023-07-22T21:39:27.853Z,2.20
2023-07-22T21:41:55.942Z,1.80
2023-07-22T21:44:23.956Z,1.50
2023-07-22T21:46:51.993Z,1.90
2023-07-22T21:49:20.133Z,1.60
2023-07-22T21:51:48.048Z,1.70
2023-07-22T21:54:16.009Z,1.60
2023-07-22T21:56:43.976Z,1.70
2023-07-22T21:59:12.428Z,1.60
2023-07-22T22:01:40.652Z,1.50
2023-07-22T22:04:08.775Z,1.20
2023-07-22T22:06:36.778Z,1.60
2023-07-22T22:09:04.756Z,1.30
2023-07-22T22:11:32.868Z,1.40
2023-07-22T22:14:00.828Z,1.00
2023-07-22T22:16:28.772Z,1.30
2023-07-22T22:18:56.909Z,1.40
2023-07-22T22:21:25.271Z,1.30
2023-07-22T22:23:53.449Z,1.20
2023-07-22T22:26:21.534Z,1.50
2023-07-22T22:28:49.747Z,1.20
2023-07-22T22:31:18.300Z,1.30
2023-07-22T22:33:46.400Z,1.00
2023-07-22T22:36:14.503Z,1.30
2023-07-22T22:38:42.446Z,1.30
2023-07-22T22:41:10.373Z,1.40
2023-07-22T22:43:38.945Z,1.30
2023-07-22T22:46:06.923Z,1.20
2023-07-22T22:48:34.922Z,1.10
2023-07-22T22:51:03.010Z,1.40
2023-07-22T22:53:31.056Z,1.40
2023-07-22T22:55:59.813Z,1.40
2023-07-22T22:58:27.798Z,1.30
2023-07-22T23:00:55.883Z,1.10
2023-07-22T23:03:23.937Z,1.20
2023-07-22T23:05:52.193Z,1.30
2023-07-22T23:08:20.201Z,1.40
2023-07-22T23:10:49.186Z,1.20
2023-07-22T23:13:17.176Z,1.20
2023-07-22T23:15:47.311Z,1.40
2023-07-22T23:18:18.371Z,1.70
2023-07-22T23:20:46.985Z,2.20
2023-07-22T23:23:14.927Z,1.00
2023-07-22T23:25:42.892Z,1.40
2023-07-22T23:28:10.892Z,1.20
2023-07-22T23:30:39.138Z,1.50
2023-07-22T23:33:07.714Z,0.90
2023-07-22T23:35:35.635Z,1.50
2023-07-22T23:38:05.097Z,1.10
2023-07-22T23:40:33.347Z,1.50
2023-07-22T23:43:01.354Z,1.40
2023-07-22T23:45:29.393Z,1.20
2023-07-22T23:47:57.344Z,1.50
2023-07-22T23:50:25.370Z,1.30
2023-07-22T23:52:53.292Z,1.10
2023-07-22T23:55:21.234Z,1.20
2023-07-22T23:57:49.165Z,1.10
